createdAt,value
2023-05-17T00:00:35.672Z,5.84
2023-05-17T00:05:32.173Z,5.70
2023-05-17T00:10:28.617Z,5.53
2023-05-17T00:15:25.316Z,5.51
2023-05-17T00:20:21.872Z,5.46
2023-05-17T00:25:18.304Z,5.32
2023-05-17T00:30:15.162Z,5.14
2023-05-17T00:35:11.638Z,5.11
2023-05-17T00:40:09.182Z,4.91
2023-05-17T00:45:06.546Z,4.84
2023-05-17T00:50:03.766Z,4.87
2023-05-17T00:55:00.478Z,4.87
2023-05-17T00:59:57.400Z,4.96
2023-05-17T01:04:54.326Z,4.88
2023-05-17T01:09:50.994Z,4.77
2023-05-17T01:14:52.581Z,4.70
2023-05-17T01:20:01.004Z,4.67
2023-05-17T01:25:18.717Z,4.41
2023-05-17T01:30:18.138Z,4.30
2023-05-17T01:35:16.131Z,4.29
2023-05-17T01:40:13.172Z,4.32
2023-05-17T01:45:22.854Z,4.34
2023-05-17T01:50:25.357Z,4.34
2023-05-17T01:55:26.750Z,4.18
2023-05-17T02:00:25.722Z,4.17
2023-05-17T02:05:22.285Z,3.78
2023-05-17T02:10:18.779Z,3.76
2023-05-17T02:15:16.643Z,3.83
2023-05-17T02:20:13.080Z,3.71
2023-05-17T02:25:09.845Z,3.69
2023-05-17T02:30:07.557Z,3.71
2023-05-17T02:35:04.341Z,3.69
2023-05-17T02:40:00.807Z,3.64
2023-05-17T02:44:58.031Z,3.58
2023-05-17T02:49:54.508Z,3.53
2023-05-17T02:54:51.639Z,3.52
2023-05-17T02:59:48.251Z,3.47
2023-05-17T03:04:44.862Z,3.44
2023-05-17T03:09:42.861Z,3.46
2023-05-17T03:14:39.346Z,3.47
2023-05-17T03:19:35.900Z,3.66
2023-05-17T03:24:32.403Z,3.60
2023-05-17T03:29:28.841Z,3.59
2023-05-17T03:34:25.455Z,3.56
2023-05-17T03:39:22.181Z,3.56
2023-05-17T03:44:18.631Z,3.49
2023-05-17T03:49:15.092Z,3.53
2023-05-17T03:54:11.646Z,3.54
2023-05-17T03:59:08.097Z,3.55
2023-05-17T04:04:05.986Z,3.64
2023-05-17T04:09:02.688Z,3.57
2023-05-17T04:13:59.228Z,3.34
2023-05-17T04:18:56.085Z,3.34
2023-05-17T04:23:52.579Z,3.35
2023-05-17T04:28:48.957Z,3.60
2023-05-17T04:33:45.768Z,3.86
2023-05-17T04:38:42.616Z,4.06
2023-05-17T04:43:39.249Z,4.23
2023-05-17T04:48:36.006Z,4.45
2023-05-17T04:53:32.630Z,4.70
2023-05-17T04:58:29.009Z,4.67
2023-05-17T05:03:26.555Z,4.72
2023-05-17T05:08:23.039Z,5.11
2023-05-17T05:13:19.477Z,5.51
2023-05-17T05:18:15.944Z,5.81
2023-05-17T05:23:12.333Z,6.03
2023-05-17T05:28:08.786Z,6.37
2023-05-17T05:33:05.358Z,6.47
2023-05-17T05:38:01.780Z,6.44
2023-05-17T05:42:58.246Z,6.55
2023-05-17T05:47:54.803Z,6.47
2023-05-17T05:52:51.331Z,6.43
2023-05-17T05:57:47.754Z,6.45
2023-05-17T06:02:44.215Z,6.54
2023-05-17T06:07:40.623Z,6.78
2023-05-17T06:12:37.029Z,6.90
2023-05-17T06:17:33.526Z,7.05
2023-05-17T06:22:29.997Z,7.32
2023-05-17T06:27:26.709Z,7.45
2023-05-17T06:32:23.115Z,7.83
2023-05-17T06:37:19.530Z,8.39
2023-05-17T06:42:15.956Z,8.54
2023-05-17T06:47:12.427Z,9.08
2023-05-17T06:52:08.827Z,9.18
2023-05-17T06:57:05.673Z,8.61
2023-05-17T07:02:02.260Z,8.71
2023-05-17T07:06:58.702Z,9.08
2023-05-17T07:11:55.167Z,9.24
2023-05-17T07:16:51.557Z,9.19
2023-05-17T07:21:48.030Z,8.80
2023-05-17T07:26:45.904Z,8.63
2023-05-17T07:31:42.308Z,9.33
2023-05-17T07:36:38.945Z,9.41
2023-05-17T07:41:36.418Z,8.65
2023-05-17T07:46:33.137Z,8.75
2023-05-17T07:51:29.615Z,8.47
2023-05-17T07:56:26.022Z,9.38
2023-05-17T08:01:23.694Z,9.84
2023-05-17T08:06:20.141Z,9.86
2023-05-17T08:11:16.867Z,9.24
2023-05-17T08:16:14.815Z,9.66
2023-05-17T08:21:11.862Z,10.03
2023-05-17T08:26:08.248Z,10.76
2023-05-17T08:31:04.957Z,10.18
2023-05-17T08:36:02.942Z,10.36
2023-05-17T08:40:59.978Z,9.98
2023-05-17T08:45:58.163Z,10.42
2023-05-17T08:50:56.462Z,10.43
2023-05-17T08:55:58.035Z,9.97
2023-05-17T09:00:56.122Z,9.89
2023-05-17T09:05:53.700Z,9.78
2023-05-17T09:10:50.703Z,9.71
2023-05-17T09:15:48.941Z,10.66
2023-05-17T09:20:51.492Z,11.39
2023-05-17T09:25:49.345Z,11.47
2023-05-17T09:30:49.347Z,11.06
2023-05-17T09:35:45.853Z,11.55
2023-05-17T09:40:43.975Z,10.37
2023-05-17T09:45:41.216Z,9.97
2023-05-17T09:50:37.634Z,9.85
2023-05-17T09:55:34.099Z,11.95
2023-05-17T10:00:32.231Z,11.45
2023-05-17T10:05:29.318Z,11.02
2023-05-17T10:10:27.681Z,10.03
2023-05-17T10:15:25.751Z,11.81
2023-05-17T10:20:22.271Z,11.52
2023-05-17T10:25:19.310Z,10.93
2023-05-17T10:30:18.143Z,11.33
2023-05-17T10:35:16.609Z,12.76
2023-05-17T10:40:13.939Z,11.15
2023-05-17T10:45:12.595Z,10.78
2023-05-17T10:50:15.872Z,11.71
2023-05-17T10:55:12.449Z,11.95
2023-05-17T11:00:12.290Z,10.75
2023-05-17T11:05:23.821Z,12.41
2023-05-17T11:10:20.365Z,12.51
2023-05-17T11:15:17.669Z,10.93
2023-05-17T11:20:26.826Z,11.56
2023-05-17T11:25:23.603Z,11.36
2023-05-17T11:30:27.113Z,11.72
2023-05-17T11:35:26.819Z,10.73
2023-05-17T11:40:28.319Z,11.47
2023-05-17T11:45:25.136Z,12.11
2023-05-17T11:50:21.624Z,11.45
2023-05-17T11:55:18.252Z,11.32
2023-05-17T12:00:16.643Z,12.25
2023-05-17T12:05:19.629Z,11.95
2023-05-17T12:10:16.452Z,11.06
2023-05-17T12:15:19.011Z,11.91
2023-05-17T12:20:16.054Z,12.07
2023-05-17T12:25:19.940Z,13.03
2023-05-17T12:30:17.159Z,12.77
2023-05-17T12:35:13.656Z,12.49
2023-05-17T12:40:12.064Z,13.15
2023-05-17T12:45:12.824Z,13.37
2023-05-17T12:50:10.118Z,13.01
2023-05-17T12:55:12.657Z,13.20
2023-05-17T13:00:09.663Z,13.18
2023-05-17T13:05:16.744Z,12.74
2023-05-17T13:10:28.281Z,12.71
2023-05-17T13:15:32.574Z,12.90
2023-05-17T13:20:29.419Z,13.54
2023-05-17T13:25:26.137Z,13.09
2023-05-17T13:30:22.581Z,13.45
2023-05-17T13:35:19.004Z,12.37
2023-05-17T13:40:15.656Z,12.57
2023-05-17T13:45:13.601Z,11.86
2023-05-17T13:50:10.592Z,12.09
2023-05-17T13:55:07.757Z,12.20
2023-05-17T14:00:12.560Z,12.64
2023-05-17T14:05:09.882Z,13.08
2023-05-17T14:10:08.032Z,12.72
2023-05-17T14:15:04.924Z,12.43
2023-05-17T14:20:01.451Z,12.02
2023-05-17T14:24:57.938Z,11.75
2023-05-17T14:29:54.534Z,12.69
2023-05-17T14:34:50.979Z,13.90
2023-05-17T14:40:05.325Z,13.19
2023-05-17T14:45:03.340Z,12.86
2023-05-17T14:49:59.835Z,12.64
2023-05-17T14:54:56.663Z,11.62
2023-05-17T14:59:53.100Z,11.80
2023-05-17T15:04:49.822Z,12.82
2023-05-17T15:09:46.623Z,12.71
2023-05-17T15:14:44.021Z,12.05
2023-05-17T15:19:41.224Z,11.58
2023-05-17T15:24:39.785Z,11.38
2023-05-17T15:29:38.827Z,11.68
2023-05-17T15:34:35.369Z,12.19
2023-05-17T15:39:32.010Z,12.08
2023-05-17T15:44:28.451Z,12.02
2023-05-17T15:49:25.924Z,12.11
2023-05-17T15:54:22.415Z,12.36
2023-05-17T15:59:18.853Z,12.75
2023-05-17T16:04:15.799Z,12.57
2023-05-17T16:09:14.748Z,13.97
2023-05-17T16:14:11.656Z,13.47
2023-05-17T16:19:08.133Z,13.11
2023-05-17T16:24:06.517Z,12.86
2023-05-17T16:29:02.950Z,13.60
2023-05-17T16:33:59.397Z,14.04
2023-05-17T16:38:55.888Z,16.86
2023-05-17T16:43:52.353Z,18.69
2023-05-17T16:48:48.745Z,18.15
2023-05-17T16:53:45.237Z,18.67
2023-05-17T16:58:41.619Z,16.22
2023-05-17T17:03:38.163Z,15.46
2023-05-17T17:08:34.605Z,15.06
2023-05-17T17:13:31.325Z,15.77
2023-05-17T17:18:29.020Z,16.24
2023-05-17T17:23:25.650Z,15.24
2023-05-17T17:28:22.060Z,19.49
2023-05-17T17:33:18.539Z,17.26
2023-05-17T17:38:15.142Z,16.46
2023-05-17T17:43:11.571Z,16.55
2023-05-17T17:48:08.107Z,15.78
2023-05-17T17:53:04.592Z,15.18
2023-05-17T17:58:01.241Z,15.56
2023-05-17T18:02:57.844Z,12.63
2023-05-17T18:07:54.318Z,11.76
2023-05-17T18:12:51.713Z,12.83
2023-05-17T18:17:51.282Z,14.60
2023-05-17T18:22:47.841Z,14.51
2023-05-17T18:27:44.473Z,13.62
2023-05-17T18:32:41.286Z,13.09
2023-05-17T18:37:37.790Z,12.53
2023-05-17T18:42:34.226Z,11.41
2023-05-17T18:47:30.741Z,11.33
2023-05-17T18:52:27.165Z,10.81
2023-05-17T18:57:23.570Z,10.39
2023-05-17T19:02:19.991Z,10.14
2023-05-17T19:07:16.517Z,9.83
2023-05-17T19:12:12.932Z,9.56
2023-05-17T19:17:10.255Z,9.39
2023-05-17T19:22:06.975Z,9.17
2023-05-17T19:27:03.636Z,8.98
2023-05-17T19:32:00.193Z,8.90
2023-05-17T19:36:57.381Z,8.78
2023-05-17T19:41:53.789Z,8.68
2023-05-17T19:46:50.497Z,8.60
2023-05-17T19:51:48.132Z,8.50
2023-05-17T19:56:44.800Z,8.37
2023-05-17T20:01:41.317Z,8.30
2023-05-17T20:06:37.921Z,8.14
2023-05-17T20:11:34.603Z,7.92
2023-05-17T20:16:31.215Z,7.82
2023-05-17T20:21:29.244Z,7.78
2023-05-17T20:26:27.052Z,7.69
2023-05-17T20:31:23.492Z,7.68
2023-05-17T20:36:20.027Z,7.64
2023-05-17T20:41:16.722Z,7.57
2023-05-17T20:46:13.939Z,7.50
2023-05-17T20:51:10.757Z,7.43
2023-05-17T20:56:07.456Z,7.50
2023-05-17T21:01:04.035Z,7.43
2023-05-17T21:06:01.615Z,7.26
2023-05-17T21:10:58.712Z,7.17
2023-05-17T21:15:55.879Z,7.04
2023-05-17T21:20:52.707Z,6.96
2023-05-17T21:25:49.265Z,6.95
2023-05-17T21:30:45.674Z,6.84
2023-05-17T21:35:42.068Z,6.78
2023-05-17T21:40:39.077Z,6.73
2023-05-17T21:45:35.619Z,6.65
2023-05-17T21:50:32.278Z,6.50
2023-05-17T21:55:36.482Z,6.40
2023-05-17T22:00:43.393Z,6.36
2023-05-17T22:05:40.013Z,6.32
2023-05-17T22:10:37.040Z,6.19
2023-05-17T22:15:34.809Z,6.16
2023-05-17T22:20:31.472Z,6.07
2023-05-17T22:25:28.215Z,6.03
2023-05-17T22:30:24.606Z,5.95
2023-05-17T22:35:21.114Z,5.89
2023-05-17T22:40:17.804Z,5.87
2023-05-17T22:45:14.498Z,5.82
2023-05-17T22:50:12.037Z,5.73
2023-05-17T22:55:10.698Z,5.67
2023-05-17T23:00:09.288Z,5.58
2023-05-17T23:05:06.077Z,5.54
2023-05-17T23:10:07.159Z,5.47
2023-05-17T23:15:05.095Z,5.36
2023-05-17T23:20:06.820Z,5.25
2023-05-17T23:25:03.386Z,5.21
2023-05-17T23:30:01.088Z,5.11
2023-05-17T23:34:58.552Z,4.96
2023-05-17T23:39:54.955Z,4.82
2023-05-17T23:44:51.325Z,4.78
2023-05-17T23:49:47.764Z,4.73
2023-05-17T23:54:45.018Z,4.77
2023-05-17T23:59:42.082Z,4.60
